Terminal Aerodrome Forecast
Issued by NWS

Home | Current Version | Previous Version | Text Only | Print | Product List | Glossary On
Versions: 1 2 3 4 5 6 7 8 9 10 11 12 13 14 15 16
681
FTPA31 PHFO 230540
TAFHNY
TAF
PHNY 230540Z 2306/2406 07012KT P6SM VCSH FEW020 SCT035 BKN250
     FM231000 VRB06KT P6SM SCT030 BKN250
     FM231800 29007KT P6SM FEW020 SCT035
      AMD NOT SKED=

USA.gov is the U.S. government's official web portal to all federal, state and local government web resources and services.